Terminal Aerodrome Forecast
Issued by NWS

Home | Current Version | Previous Version | Text Only | Print | Product List | Glossary On
Versions: 1 2 3 4 5 6 7 8 9 10 11 12 13 14 15 16 17 18 19 20 21 22 23 24
000
FTUS41 KCAR 250555 CCA
TAFPQI
TAF COR
KPQI 250555Z 2506/2606 18010KT P6SM OVC050
     FM251800 19009KT P6SM VCSH BKN040 OVC080
     FM252100 20007KT P6SM -SHRA OVC030
     FM252200 20007KT 5SM -RA OVC023
     FM260000 20005KT 3SM -RA BR OVC018=

USA.gov is the U.S. government's official web portal to all federal, state and local government web resources and services.